createdAt,value
2023-04-18T00:01:11.289Z,6.58
2023-04-18T00:03:40.603Z,6.55
2023-04-18T00:06:07.250Z,6.57
2023-04-18T00:08:34.056Z,6.58
2023-04-18T00:11:00.388Z,6.62
2023-04-18T00:13:28.506Z,6.66
2023-04-18T00:15:55.170Z,6.66
2023-04-18T00:18:22.175Z,6.69
2023-04-18T00:20:48.594Z,6.66
2023-04-18T00:23:15.129Z,6.69
2023-04-18T00:25:41.515Z,6.70
2023-04-18T00:28:08.144Z,6.68
2023-04-18T00:30:34.629Z,6.72
2023-04-18T00:33:01.659Z,6.75
2023-04-18T00:35:28.395Z,6.78
2023-04-18T00:37:55.081Z,6.86
2023-04-18T00:40:21.787Z,6.81
2023-04-18T00:42:48.489Z,6.77
2023-04-18T00:45:14.998Z,6.76
2023-04-18T00:47:41.698Z,6.79
2023-04-18T00:50:09.962Z,6.88
2023-04-18T00:52:36.894Z,6.87
2023-04-18T00:55:06.629Z,6.87
2023-04-18T00:57:33.212Z,6.94
2023-04-18T01:00:01.372Z,6.90
2023-04-18T01:02:31.135Z,6.92
2023-04-18T01:04:58.627Z,7.01
2023-04-18T01:07:26.504Z,7.07
2023-04-18T01:09:53.905Z,7.17
2023-04-18T01:12:20.397Z,7.07
2023-04-18T01:14:46.757Z,7.16
2023-04-18T01:17:13.329Z,7.07
2023-04-18T01:19:40.443Z,7.17
2023-04-18T01:22:07.121Z,7.15
2023-04-18T01:24:33.786Z,7.16
2023-04-18T01:27:02.060Z,7.23
2023-04-18T01:29:29.001Z,7.15
2023-04-18T01:31:55.625Z,7.21
2023-04-18T01:34:22.020Z,7.25
2023-04-18T01:36:48.487Z,7.17
2023-04-18T01:39:15.091Z,7.20
2023-04-18T01:41:42.113Z,7.16
2023-04-18T01:44:08.569Z,7.21
2023-04-18T01:46:36.059Z,7.20
2023-04-18T01:49:02.908Z,7.26
2023-04-18T01:51:29.269Z,7.16
2023-04-18T01:53:55.705Z,7.21
2023-04-18T01:56:22.294Z,7.15
2023-04-18T01:58:48.784Z,7.14
2023-04-18T02:01:15.699Z,7.12
2023-04-18T02:03:42.284Z,7.11
2023-04-18T02:06:08.756Z,7.05
2023-04-18T02:08:35.899Z,6.98
2023-04-18T02:11:02.882Z,6.99
2023-04-18T02:13:29.555Z,6.98
2023-04-18T02:15:55.896Z,6.96
2023-04-18T02:18:24.690Z,6.99
2023-04-18T02:20:52.078Z,6.98
2023-04-18T02:23:19.071Z,7.02
2023-04-18T02:25:45.691Z,7.02
2023-04-18T02:28:12.046Z,7.00
2023-04-18T02:30:38.472Z,7.06
2023-04-18T02:33:04.970Z,7.02
2023-04-18T02:35:31.707Z,7.02
2023-04-18T02:37:58.114Z,6.98
2023-04-18T02:40:24.854Z,6.95
2023-04-18T02:42:51.221Z,6.93
2023-04-18T02:45:17.710Z,6.91
2023-04-18T02:47:54.489Z,6.92
2023-04-18T02:50:22.240Z,6.87
2023-04-18T02:52:48.929Z,6.87
2023-04-18T02:55:15.280Z,6.87
2023-04-18T02:57:41.754Z,6.92
2023-04-18T03:00:08.904Z,6.86
2023-04-18T03:02:35.776Z,6.95
2023-04-18T03:05:02.280Z,6.98
2023-04-18T03:07:28.928Z,7.10
2023-04-18T03:09:55.373Z,7.00
2023-04-18T03:12:21.805Z,7.03
2023-04-18T03:14:48.282Z,6.94
2023-04-18T03:17:14.770Z,6.90
2023-04-18T03:19:41.127Z,6.81
2023-04-18T03:22:07.808Z,6.81
2023-04-18T03:24:34.152Z,6.81
2023-04-18T03:27:00.791Z,6.68
2023-04-18T03:29:27.470Z,6.65
2023-04-18T03:31:53.932Z,6.59
2023-04-18T03:34:20.477Z,6.56
2023-04-18T03:36:48.190Z,6.60
2023-04-18T03:39:14.822Z,6.67
2023-04-18T03:41:41.502Z,6.63
2023-04-18T03:44:07.935Z,6.54
2023-04-18T03:46:35.172Z,6.47
2023-04-18T03:49:01.767Z,6.55
2023-04-18T03:51:33.792Z,6.46
2023-04-18T03:54:00.217Z,6.51
2023-04-18T03:56:26.930Z,6.53
2023-04-18T03:58:53.345Z,6.53
2023-04-18T04:01:19.824Z,6.47
2023-04-18T04:03:46.754Z,6.28
2023-04-18T04:06:13.596Z,6.38
2023-04-18T04:08:40.239Z,6.42
2023-04-18T04:11:06.746Z,6.37
2023-04-18T04:13:33.218Z,6.30
2023-04-18T04:15:59.662Z,6.30
2023-04-18T04:18:30.916Z,6.30
2023-04-18T04:20:59.177Z,6.29
2023-04-18T04:23:26.702Z,6.24
2023-04-18T04:25:53.706Z,6.19
2023-04-18T04:28:23.929Z,6.15
2023-04-18T04:30:53.791Z,6.08
2023-04-18T04:33:21.044Z,6.15
2023-04-18T04:35:48.020Z,6.10
2023-04-18T04:38:15.362Z,6.10
2023-04-18T04:40:42.468Z,6.20
2023-04-18T04:43:12.845Z,6.15
2023-04-18T04:45:42.178Z,6.15
2023-04-18T04:48:09.605Z,6.21
2023-04-18T04:50:38.171Z,6.15
2023-04-18T04:53:06.256Z,6.02
2023-04-18T04:55:33.123Z,5.92
2023-04-18T04:57:59.644Z,6.00
2023-04-18T05:00:26.168Z,6.05
2023-04-18T05:02:55.406Z,6.06
2023-04-18T05:05:22.348Z,6.07
2023-04-18T05:07:48.708Z,6.07
2023-04-18T05:10:15.148Z,6.09
2023-04-18T05:12:41.615Z,6.18
2023-04-18T05:15:08.215Z,6.15
2023-04-18T05:17:34.765Z,6.24
2023-04-18T05:20:01.241Z,6.12
2023-04-18T05:22:27.959Z,6.08
2023-04-18T05:24:54.316Z,6.05
2023-04-18T05:27:21.571Z,6.01
2023-04-18T05:29:49.312Z,6.05
2023-04-18T05:32:16.322Z,6.05
2023-04-18T05:34:43.279Z,5.98
2023-04-18T05:37:09.705Z,5.88
2023-04-18T05:39:36.608Z,5.93
2023-04-18T05:42:03.463Z,5.88
2023-04-18T05:44:29.931Z,6.02
2023-04-18T05:46:56.398Z,6.01
2023-04-18T05:49:23.089Z,6.00
2023-04-18T05:51:49.988Z,6.04
2023-04-18T05:54:16.949Z,5.88
2023-04-18T05:56:43.390Z,5.82
2023-04-18T05:59:09.726Z,5.88
2023-04-18T06:01:36.426Z,5.99
2023-04-18T06:04:02.957Z,5.99
2023-04-18T06:06:29.488Z,5.91
2023-04-18T06:08:55.873Z,5.93
2023-04-18T06:11:22.911Z,5.99
2023-04-18T06:13:49.440Z,6.00
2023-04-18T06:16:15.997Z,5.88
2023-04-18T06:18:42.467Z,5.90
2023-04-18T06:21:09.249Z,5.88
2023-04-18T06:23:35.611Z,5.87
2023-04-18T06:26:02.342Z,5.90
2023-04-18T06:28:28.731Z,5.85
2023-04-18T06:30:55.154Z,5.65
2023-04-18T06:33:21.516Z,5.61
2023-04-18T06:35:48.115Z,5.75
2023-04-18T06:38:14.780Z,5.82
2023-04-18T06:40:41.492Z,5.83
2023-04-18T06:43:08.158Z,5.83
2023-04-18T06:45:35.399Z,5.76
2023-04-18T06:48:05.867Z,5.72
2023-04-18T06:50:32.428Z,5.72
2023-04-18T06:52:58.976Z,5.63
2023-04-18T06:55:25.445Z,5.76
2023-04-18T06:57:51.928Z,5.72
2023-04-18T07:00:18.490Z,5.66
2023-04-18T07:02:45.143Z,5.74
2023-04-18T07:05:11.681Z,5.79
2023-04-18T07:07:38.168Z,5.73
2023-04-18T07:10:06.212Z,5.74
2023-04-18T07:12:32.612Z,5.75
2023-04-18T07:14:59.061Z,5.83
2023-04-18T07:17:25.838Z,5.77
2023-04-18T07:19:52.384Z,5.78
2023-04-18T07:22:18.730Z,5.82
2023-04-18T07:24:45.191Z,5.80
2023-04-18T07:27:11.599Z,5.82
2023-04-18T07:29:38.063Z,5.78
2023-04-18T07:32:06.116Z,5.85
2023-04-18T07:34:36.137Z,5.97
2023-04-18T07:37:02.618Z,5.86
2023-04-18T07:39:29.006Z,5.82
2023-04-18T07:41:55.418Z,5.77
2023-04-18T07:44:21.895Z,5.88
2023-04-18T07:46:48.442Z,5.83
2023-04-18T07:49:15.147Z,5.96
2023-04-18T07:51:41.690Z,5.86
2023-04-18T07:54:08.426Z,6.00
2023-04-18T07:56:34.822Z,6.02
2023-04-18T07:59:01.681Z,6.14
2023-04-18T08:01:28.102Z,6.12
2023-04-18T08:03:56.584Z,5.90
2023-04-18T08:06:23.254Z,6.00
2023-04-18T08:08:49.749Z,6.06
2023-04-18T08:11:16.557Z,6.12
2023-04-18T08:13:43.274Z,6.23
2023-04-18T08:16:09.737Z,6.14
2023-04-18T08:18:36.438Z,6.09
2023-04-18T08:21:02.812Z,6.23
2023-04-18T08:23:29.164Z,6.22
2023-04-18T08:25:55.678Z,6.20
2023-04-18T08:28:22.331Z,6.31
2023-04-18T08:30:49.288Z,6.33
2023-04-18T08:33:16.169Z,6.21
2023-04-18T08:35:42.975Z,6.24
2023-04-18T08:38:09.831Z,6.24
2023-04-18T08:40:37.257Z,6.26
2023-04-18T08:43:09.340Z,6.30
2023-04-18T08:45:36.888Z,6.38
2023-04-18T08:48:03.909Z,6.34
2023-04-18T08:50:30.533Z,6.33
2023-04-18T08:52:57.020Z,6.41
2023-04-18T08:55:23.473Z,6.45
2023-04-18T08:57:54.043Z,6.44
2023-04-18T09:00:20.619Z,6.34
2023-04-18T09:02:47.455Z,6.44
2023-04-18T09:05:16.733Z,6.44
2023-04-18T09:07:43.227Z,6.56
2023-04-18T09:10:10.172Z,6.74
2023-04-18T09:12:52.088Z,6.61
2023-04-18T09:15:20.437Z,6.50
2023-04-18T09:17:54.037Z,6.61
2023-04-18T09:20:36.055Z,6.52
2023-04-18T09:23:03.872Z,6.44
2023-04-18T09:25:41.591Z,6.50
2023-04-18T09:28:29.035Z,6.44
2023-04-18T09:30:57.299Z,6.35
2023-04-18T09:33:33.930Z,6.37
2023-04-18T09:36:19.209Z,6.36
2023-04-18T09:38:46.750Z,6.38
2023-04-18T09:41:15.883Z,6.38
2023-04-18T09:43:43.126Z,6.45
2023-04-18T09:46:09.684Z,6.54
2023-04-18T09:48:36.649Z,6.48
2023-04-18T09:51:22.018Z,6.48
2023-04-18T09:53:50.494Z,6.60
2023-04-18T09:56:25.920Z,6.52
2023-04-18T09:59:01.518Z,6.53
2023-04-18T10:01:29.807Z,6.55
2023-04-18T10:03:57.714Z,6.58
2023-04-18T10:06:27.368Z,6.51
2023-04-18T10:08:55.331Z,6.51
2023-04-18T10:11:23.616Z,6.58
2023-04-18T10:13:53.408Z,6.57
2023-04-18T10:16:20.729Z,6.51
2023-04-18T10:18:49.746Z,6.52
2023-04-18T10:21:16.648Z,6.63
2023-04-18T10:23:43.113Z,6.55
2023-04-18T10:26:10.963Z,6.57
2023-04-18T10:28:53.690Z,6.63
2023-04-18T10:31:28.247Z,6.61
2023-04-18T10:36:28.902Z,6.59
2023-04-18T10:39:00.544Z,6.72
2023-04-18T10:41:28.909Z,6.62
2023-04-18T10:44:08.672Z,6.66
2023-04-18T10:46:39.388Z,6.70
2023-04-18T10:49:18.144Z,6.77
2023-04-18T10:51:49.536Z,6.80
2023-04-18T10:54:28.560Z,6.83
2023-04-18T10:56:56.847Z,6.89
2023-04-18T10:59:25.129Z,6.87
2023-04-18T11:01:57.492Z,6.83
2023-04-18T11:04:25.406Z,6.85
2023-04-18T11:06:55.853Z,6.83
2023-04-18T11:09:22.591Z,6.89
2023-04-18T11:12:08.916Z,6.88
2023-04-18T11:14:45.464Z,6.92
2023-04-18T11:17:23.929Z,6.86
2023-04-18T11:20:01.382Z,6.89
2023-04-18T11:22:27.901Z,6.87
2023-04-18T11:24:59.145Z,6.79
2023-04-18T11:27:28.677Z,6.83
2023-04-18T11:29:56.393Z,6.78
2023-04-18T11:32:24.433Z,6.92
2023-04-18T11:34:53.215Z,6.89
2023-04-18T11:37:20.112Z,6.93
2023-04-18T11:39:46.726Z,6.98
2023-04-18T11:42:13.538Z,7.06
2023-04-18T11:44:40.224Z,7.14
2023-04-18T11:47:26.564Z,7.11
2023-04-18T11:50:07.149Z,7.06
2023-04-18T11:52:35.086Z,7.06
2023-04-18T11:55:21.387Z,7.03
2023-04-18T11:58:01.416Z,7.16
2023-04-18T12:00:34.008Z,7.23
2023-04-18T12:03:01.985Z,7.11
2023-04-18T12:05:30.962Z,7.36
2023-04-18T12:08:13.270Z,7.29
2023-04-18T12:10:57.515Z,7.33
2023-04-18T12:13:26.726Z,7.35
2023-04-18T12:15:54.153Z,7.39
2023-04-18T12:18:21.243Z,7.29
2023-04-18T12:20:54.434Z,7.43
2023-04-18T12:23:38.900Z,7.30
2023-04-18T12:26:23.659Z,7.34
2023-04-18T12:28:51.203Z,7.34
2023-04-18T12:31:18.045Z,7.54
2023-04-18T12:33:44.612Z,7.49
2023-04-18T12:36:11.115Z,7.47
2023-04-18T12:38:37.551Z,7.46
2023-04-18T12:41:04.267Z,7.47
2023-04-18T12:43:30.916Z,7.44
2023-04-18T12:45:57.695Z,7.55
2023-04-18T12:48:24.052Z,7.55
2023-04-18T12:50:50.480Z,7.43
2023-04-18T12:53:17.179Z,7.38
2023-04-18T12:55:43.599Z,7.45
2023-04-18T12:58:09.954Z,7.44
2023-04-18T13:00:36.370Z,7.47
2023-04-18T13:03:03.013Z,7.45
2023-04-18T13:05:33.145Z,7.50
2023-04-18T13:08:12.744Z,7.57
2023-04-18T13:10:42.393Z,7.54
2023-04-18T13:13:08.762Z,7.54
2023-04-18T13:15:35.219Z,7.63
2023-04-18T13:18:05.097Z,7.67
2023-04-18T13:20:32.251Z,7.52
2023-04-18T13:22:58.618Z,7.60
2023-04-18T13:25:26.380Z,7.62
2023-04-18T13:27:52.773Z,7.63
2023-04-18T13:30:19.503Z,7.65
2023-04-18T13:32:46.270Z,7.74
2023-04-18T13:35:12.691Z,7.69
2023-04-18T13:37:39.435Z,7.67
2023-04-18T13:40:06.742Z,7.75
2023-04-18T13:42:33.914Z,7.74
2023-04-18T13:45:00.461Z,7.73
2023-04-18T13:47:27.154Z,7.71
2023-04-18T13:49:53.604Z,7.69
2023-04-18T13:52:20.241Z,7.75
2023-04-18T13:54:47.027Z,7.78
2023-04-18T13:57:14.572Z,7.74
2023-04-18T13:59:41.183Z,7.71
2023-04-18T14:02:10.786Z,7.84
2023-04-18T14:04:37.510Z,7.86
2023-04-18T14:07:06.172Z,7.85
2023-04-18T14:09:32.651Z,7.86
2023-04-18T14:11:59.124Z,7.93
2023-04-18T14:14:25.792Z,7.85
2023-04-18T14:16:53.521Z,7.93
2023-04-18T14:19:19.932Z,7.92
2023-04-18T14:21:47.598Z,7.92
2023-04-18T14:24:14.278Z,7.96
2023-04-18T14:26:40.749Z,7.99
2023-04-18T14:29:07.275Z,8.06
2023-04-18T14:31:33.687Z,8.10
2023-04-18T14:34:00.104Z,8.05
2023-04-18T14:36:27.185Z,8.03
2023-04-18T14:38:54.616Z,8.14
2023-04-18T14:41:21.079Z,8.21
2023-04-18T14:43:47.422Z,8.25
2023-04-18T14:46:18.331Z,8.20
2023-04-18T14:48:46.347Z,8.19
2023-04-18T14:51:12.984Z,8.15
2023-04-18T14:53:39.378Z,8.17
2023-04-18T14:56:06.329Z,8.11
2023-04-18T14:58:32.999Z,8.15
2023-04-18T15:00:59.416Z,8.08
2023-04-18T15:03:26.232Z,8.18
2023-04-18T15:05:53.201Z,8.32
2023-04-18T15:08:19.698Z,8.19
2023-04-18T15:10:47.473Z,8.16
2023-04-18T15:13:13.907Z,8.34
2023-04-18T15:15:40.379Z,8.34
2023-04-18T15:18:08.258Z,8.23
2023-04-18T15:20:36.044Z,8.30
2023-04-18T15:23:02.838Z,8.23
2023-04-18T15:25:30.364Z,8.27
2023-04-18T15:27:58.097Z,8.30
2023-04-18T15:30:25.203Z,8.17
2023-04-18T15:32:52.172Z,8.33
2023-04-18T15:35:18.792Z,8.20
2023-04-18T15:37:45.169Z,8.21
2023-04-18T15:40:16.030Z,8.25
2023-04-18T15:42:43.561Z,8.19
2023-04-18T15:45:10.832Z,8.22
2023-04-18T15:47:37.397Z,8.24
2023-04-18T15:50:04.378Z,8.26
2023-04-18T15:52:30.908Z,8.33
2023-04-18T15:54:57.806Z,8.35
2023-04-18T15:57:24.234Z,8.29
2023-04-18T15:59:50.647Z,8.24
2023-04-18T16:02:17.060Z,8.23
2023-04-18T16:04:43.548Z,8.21
2023-04-18T16:07:12.038Z,8.17
2023-04-18T16:09:38.541Z,8.24
2023-04-18T16:12:05.802Z,8.24
2023-04-18T16:14:33.380Z,8.21
2023-04-18T16:16:59.886Z,8.20
2023-04-18T16:19:26.547Z,8.25
2023-04-18T16:21:52.901Z,8.26
2023-04-18T16:24:19.298Z,8.30
2023-04-18T16:26:45.713Z,8.34
2023-04-18T16:29:12.377Z,8.35
2023-04-18T16:31:38.803Z,8.50
2023-04-18T16:34:05.313Z,8.37
2023-04-18T16:36:34.146Z,8.40
2023-04-18T16:39:00.635Z,8.35
2023-04-18T16:41:27.256Z,8.32
2023-04-18T16:43:53.949Z,8.26
2023-04-18T16:46:20.499Z,8.24
2023-04-18T16:48:47.020Z,8.25
2023-04-18T16:51:13.406Z,8.24
2023-04-18T16:53:39.775Z,8.32
2023-04-18T16:56:07.870Z,8.29
2023-04-18T16:58:34.336Z,8.35
2023-04-18T17:01:04.052Z,8.28
2023-04-18T17:03:30.648Z,8.25
2023-04-18T17:05:57.218Z,8.24
2023-04-18T17:08:25.753Z,8.25
2023-04-18T17:10:52.758Z,8.30
2023-04-18T17:13:19.198Z,8.29
2023-04-18T17:15:45.885Z,8.27
2023-04-18T17:18:12.430Z,8.25
2023-04-18T17:20:38.969Z,8.19
2023-04-18T17:23:05.350Z,8.26
2023-04-18T17:25:31.828Z,8.25
2023-04-18T17:27:58.361Z,8.29
2023-04-18T17:30:24.796Z,8.23
2023-04-18T17:32:51.255Z,8.21
2023-04-18T17:35:17.883Z,8.27
2023-04-18T17:37:44.324Z,8.23
2023-04-18T17:40:11.670Z,8.23
2023-04-18T17:42:38.234Z,8.30
2023-04-18T17:45:07.483Z,8.27
2023-04-18T17:47:34.541Z,8.30
2023-04-18T17:50:00.967Z,8.29
2023-04-18T17:52:28.490Z,8.30
2023-04-18T17:54:55.620Z,8.32
2023-04-18T17:57:22.927Z,8.34
2023-04-18T17:59:49.757Z,8.31
2023-04-18T18:02:16.511Z,8.31
2023-04-18T18:04:42.963Z,8.39
2023-04-18T18:07:09.370Z,8.40
2023-04-18T18:09:35.801Z,8.29
2023-04-18T18:12:02.581Z,8.37
2023-04-18T18:14:28.933Z,8.29
2023-04-18T18:16:55.943Z,8.24
2023-04-18T18:19:22.433Z,8.21
2023-04-18T18:21:48.813Z,8.38
2023-04-18T18:24:15.227Z,8.23
2023-04-18T18:26:41.733Z,8.18
2023-04-18T18:29:11.162Z,8.16
2023-04-18T18:31:38.558Z,8.24
2023-04-18T18:34:05.689Z,8.19
2023-04-18T18:36:32.173Z,8.17
2023-04-18T18:38:58.603Z,8.17
2023-04-18T18:41:24.990Z,8.19
2023-04-18T18:43:51.585Z,8.21
2023-04-18T18:46:18.227Z,8.17
2023-04-18T18:48:44.648Z,8.20
2023-04-18T18:51:11.547Z,8.17
2023-04-18T18:53:40.149Z,8.17
2023-04-18T18:56:08.544Z,8.17
2023-04-18T18:58:35.561Z,8.17
2023-04-18T19:01:03.243Z,8.20
2023-04-18T19:03:29.891Z,8.24
2023-04-18T19:05:56.651Z,8.36
2023-04-18T19:08:23.108Z,8.37
2023-04-18T19:10:50.519Z,8.33
2023-04-18T19:13:18.891Z,8.30
2023-04-18T19:15:45.383Z,8.33
2023-04-18T19:18:12.428Z,8.35
2023-04-18T19:20:40.353Z,8.34
2023-04-18T19:23:06.793Z,8.35
2023-04-18T19:25:33.211Z,8.33
2023-04-18T19:27:59.560Z,8.30
2023-04-18T19:30:26.278Z,8.30
2023-04-18T19:32:52.757Z,8.30
2023-04-18T19:35:19.226Z,8.38
2023-04-18T19:37:45.734Z,8.37
2023-04-18T19:40:12.373Z,8.38
2023-04-18T19:42:38.821Z,8.44
2023-04-18T19:45:05.923Z,8.44
2023-04-18T19:47:33.849Z,8.45
2023-04-18T19:50:01.098Z,8.46
2023-04-18T19:52:27.548Z,8.47
2023-04-18T19:54:55.051Z,8.46
2023-04-18T19:57:21.929Z,8.43
2023-04-18T19:59:48.287Z,8.43
2023-04-18T20:02:14.972Z,8.51
2023-04-18T20:04:42.138Z,8.59
2023-04-18T20:07:09.010Z,8.52
2023-04-18T20:09:35.378Z,8.50
2023-04-18T20:12:02.578Z,8.50
2023-04-18T20:14:29.724Z,8.53
2023-04-18T20:16:56.647Z,8.59
2023-04-18T20:19:26.748Z,8.70
2023-04-18T20:21:53.197Z,8.69
2023-04-18T20:24:21.094Z,8.63
2023-04-18T20:26:47.806Z,8.70
2023-04-18T20:29:14.425Z,8.65
2023-04-18T20:31:42.371Z,8.63
2023-04-18T20:34:09.742Z,8.72
2023-04-18T20:36:41.379Z,8.83
2023-04-18T20:39:08.826Z,8.81
2023-04-18T20:41:36.814Z,8.74
2023-04-18T20:44:05.164Z,8.66
2023-04-18T20:46:32.280Z,8.66
2023-04-18T20:48:58.851Z,8.61
2023-04-18T20:51:26.741Z,8.58
2023-04-18T20:53:53.120Z,8.49
2023-04-18T20:56:20.119Z,8.64
2023-04-18T20:58:46.522Z,8.63
2023-04-18T21:01:12.945Z,8.74
2023-04-18T21:03:39.480Z,8.63
2023-04-18T21:06:06.073Z,8.59
2023-04-18T21:08:34.656Z,8.63
2023-04-18T21:11:01.316Z,8.63
2023-04-18T21:13:28.007Z,8.60
2023-04-18T21:15:56.962Z,8.53
2023-04-18T21:18:24.054Z,8.50
2023-04-18T21:20:52.798Z,8.58
2023-04-18T21:23:19.491Z,8.59
2023-04-18T21:25:45.960Z,8.65
2023-04-18T21:28:12.503Z,8.59
2023-04-18T21:30:38.876Z,8.58
2023-04-18T21:33:05.393Z,8.52
2023-04-18T21:35:31.832Z,8.60
2023-04-18T21:37:58.270Z,8.52
2023-04-18T21:40:26.670Z,8.54
2023-04-18T21:42:53.029Z,8.50
2023-04-18T21:45:19.431Z,8.48
2023-04-18T21:47:46.219Z,8.45
2023-04-18T21:50:12.954Z,8.56
2023-04-18T21:52:39.504Z,8.57
2023-04-18T21:55:06.146Z,8.57
2023-04-18T21:57:32.533Z,8.54
2023-04-18T21:59:58.911Z,8.51
2023-04-18T22:02:27.028Z,8.42
2023-04-18T22:04:53.789Z,8.42
2023-04-18T22:07:20.232Z,8.40
2023-04-18T22:09:46.645Z,8.40
2023-04-18T22:12:13.988Z,8.37
2023-04-18T22:14:41.889Z,8.36
2023-04-18T22:17:09.230Z,8.40
2023-04-18T22:19:35.687Z,8.44
2023-04-18T22:22:02.112Z,8.44
2023-04-18T22:24:28.536Z,8.46
2023-04-18T22:26:54.992Z,8.53
2023-04-18T22:29:21.664Z,8.48
2023-04-18T22:31:48.140Z,8.49
2023-04-18T22:34:14.801Z,8.55
2023-04-18T22:36:42.671Z,8.52
2023-04-18T22:39:09.109Z,8.50
2023-04-18T22:41:35.500Z,8.52
2023-04-18T22:44:01.842Z,8.45
2023-04-18T22:46:28.646Z,8.47
2023-04-18T22:48:55.163Z,8.55
2023-04-18T22:51:23.328Z,8.45
2023-04-18T22:53:49.954Z,8.41
2023-04-18T22:56:16.315Z,8.37
2023-04-18T22:58:42.704Z,8.37
2023-04-18T23:01:09.109Z,8.33
2023-04-18T23:03:35.776Z,8.42
2023-04-18T23:06:02.242Z,8.34
2023-04-18T23:08:28.642Z,8.34
2023-04-18T23:10:55.035Z,8.35
2023-04-18T23:13:21.526Z,8.36
2023-04-18T23:15:47.948Z,8.39
2023-04-18T23:18:14.551Z,8.37
2023-04-18T23:20:40.925Z,8.44
2023-04-18T23:23:07.308Z,8.33
2023-04-18T23:25:33.775Z,8.34
2023-04-18T23:28:00.249Z,8.30
2023-04-18T23:30:26.655Z,8.35
2023-04-18T23:32:53.101Z,8.42
2023-04-18T23:35:19.569Z,8.43
2023-04-18T23:37:46.049Z,8.33
2023-04-18T23:40:12.465Z,8.38
2023-04-18T23:42:38.864Z,8.32
2023-04-18T23:45:05.944Z,8.42
2023-04-18T23:47:32.525Z,8.39
2023-04-18T23:49:58.917Z,8.32
2023-04-18T23:52:25.397Z,8.21
2023-04-18T23:54:51.889Z,8.23
2023-04-18T23:57:18.262Z,8.16
2023-04-18T23:59:44.943Z,8.23
